Timeline UpdatesTrip UpdatesNews PostsPvt Posts♥♥Travel TipsAdmin PostsConv PostsFollowed PostsChat RequestsBlog PostsPNR Posts

Disclaimer
Search
 
 
Fri Nov 21, 2014 10:02:19 ISTHomeTrainsΣChainsAtlasPNRForumGalleryNewsFAQTripsMembersLoginFeedback
No Recent News for this Train
Other Trains in the News **new
Latest...
.
Fri Dec 13, 2013 (03:40PM)
⇐ Return Journey: Train# 12833

12834/Howrah - Ahmedabad SF Express

Time-Table HAS CHANGED.
Sep 03 2014 (10:29AM)
Change Departure Station:
Change Arrival Station:
Post a Train Travel TipPost a Train Travel Tip **new
Post a Comment/Question/Picture/VideoPost a Comment/Question/Picture/Video
Pantry/Catering
✓ Pantry Car Avbl
✓ Catering Avbl
RSA - Rake Sharing
Rake/Coach Composition
LOCO(SRC WAP 4E)-SLR-GEN-S1-S2-S3-S4-S5-S6-S7-S8-S9-S10-S11-S12-PC-S13-B1-B2-A1-A2-GEN-SLR
Loco
Loco: SRC WAP 4 ... Entry# 289462
News    PNR    Forum    Time-Table    Availability    Fare Chart    Map    Arr/Dep History    Trips    Gallery    ΣChains    X/O    Timeline    
Travel Time: 3h 48m    5 halts    Distance: 230 km    Avg Speed: 60 km/hr
Type: SuperFast
Zone: SER/South Eastern
Departs @ 09:12 (Avg 15m late)
Platform# 2
SMTWTFS
Surat/ST 
Arrives @ 13:00 (Avg 16m late)
Platform# 6
SMTWTFS
Ahmedabad Junction/ADI 

5 halts. 46 intermediate Stations between Surat and Ahmedabad Junction

Show ALL intermediate Stations  Show Old Time-Table

#TrkCodeStation NameX/OArrivesAvgDepartsAvgHaltPFDay#KmSpeedElevZoneAddress
1/==/HWHKolkata Howrah Junction (23)  -23:55+2221-1858.66510mERHowrah 711101, West Bengal
2/==/MCAMecheda (6)  00:50 00:49+800:52 00:50+152 1m--2-1800.43710mSERdist - purba Medinipur, West Bengal
3/==/PKUPanskura Junction (6)  01:13 01:10+701:15 01:13+82 3m--2-1788.0579mSERPanskura, West Bengal
4/==/KGPKharagpur Junction (10)  02:00+002:05+25m32-1743.67742mSERDist: West Medinipur, West Bengal
5/==/TATATatanagar Junction (5)XO  03:50+703:55+85m--2-1608.567164mSER91-657-2423026, Jharkhand
6/==/CKPChakradharpur (3)  04:50 04:51+804:57 04:58+97m12-1546.279235mSERChakradharpur (West Singhbhum), Jharkhand
7/==/ROURourkela Junction (5)X  06:15+1506:30+1515m32-1445.264198mSERRourkela, Odisha
8/==/GPRaj Gangpur (3)  06:59 06:58+1907:00 06:59+201m12-1415.472237mSERRaj Ganpur, Odisha
9/==/BMBBamra (3)  07:29 07:28+1907:30 07:29+201m--2-1380.756259mSERBamra PH : 06642-229268, Odisha
10/==/JSGJharsuguda Junction (5)X  08:08+1308:10+162m--2-1344.288236mSERJharsuguda, Odisha
11/==/BRJNBrajrajnagar  08:18+2408:20+242m--2-1332.667212mSECRBrajrajnagar, Odisha
12/==/BPHBelpahar (2)  08:28+2508:30+252m--2-1323.685235mSECRBelpahar, Odisha
13/==/RIGRaigarh (3)X  09:06+2809:11+275m--2-1272.693220mSECRRaigarh, Chhattisgarh
14/==/KHSKharsiaX  09:33+3909:35+392m--2-1238.691 SECRNational Highway 200, Chhattisgarh
15/==/BUABaradwarX  09:55+4609:57+462m--2-1208.355 SECRJanjgir-Champa, Chhattisgarh
16/==/CPHChampa Junction (3)X  10:14+4710:19+455m32-1192.872264mSECRNational Highway 200 (07819-245767), Chhattisgarh
17/==/NIANaila (3)X  10:28+4710:30+472m--2-1182.075273mSECRJanjgir, Chhattisgarh
18/==/AKTAkaltara (4)  10:42+4610:44+462m--2-1167.029284mSECRDist. Janjgir Champa, Chhattisgarh
19/==/BSPBilaspur Junction (8)X  11:40+1611:55+2515m22-1139.877271mSECRBilaspur, Chhattisgarh
20/==/BYTBhatapara (4)X  12:31+2712:33+272m22-1093.687270mSECRBanjari Road, Chhattisgarh
21/==/TLDTilda (3)X  12:51+2612:53+262m--2-1067.655 SECRBanjari Rd, Chhattisgarh
22/==/RRaipur Junction (6)X  13:35+2613:45+2510m52-1029.480297mSECRRaipur, Chhattisgarh
23/==/BPHBBhilai Power House (3)XO  14:06+1014:08+102m12-1001.417312mSECRBhilai, Chhattisgarh
24/==/DURGDurg Junction (6)X  14:40+1514:45+165m42-992.487299mSECRPh: 91-788-2322059, Chhattisgarh
25/==/RJNRaj Nandgaon (3)  15:06+2415:08+242m--2-962.086313mSECRRajnandgaon, Chhattisgarh
26/==/DGGDongargarh (2)  15:30+3115:32+312m12-930.476 SECRDongargarh, Chhattisgarh
27/==/AGNAmgaon (2)X  16:12+3616:14+372m--2-880.047317mSECRGondia, Maharashtra
28/==/GGondia Junction (7)X  16:43+2616:48+265m22-857.292316mSECRGondia 441601, Maharashtra
29/==/TROTirora (3)  17:07+3317:09+332m--2-827.972282mSECRDist Gondia, Maharashtra
30/==/TMRTumsar Road (5)  17:26+3017:28+302m--2-807.572267mSECRDistt. Bhandara, Maharashtra
31/==/BRDBhandara Road (3)X  17:43+3017:45+302m22-789.693266mSECRState Highway 252 Bhandara District, Maharashtra
32/==/KPKamptee (3)X  18:16+3018:18+302m--2-741.620290mSECRKamptee, Maharashtra
33/==/NGPNagpur Junction (8)X  19:00+2019:10+2310m32-727.320314mCRNagpur 440001, Maharashtra
34/==/AJNIAjni (3)X  19:19+2619:20+271m32-724.371310mCRNagpur 440003, Maharashtra
35/==/WRWardha Junction (4)X  20:24+2520:27+243m22-648.481289mCRWardha 442001, Maharashtra
36/==/PLOPulgaon Junction (3)  20:49+2420:50+261m22-618.967273mCRPulgaon, Maharashtra
37/==/DMNDhamangaon (2)  21:08+2621:09+271m--2-598.967300mCRDhamangaon, Maharashtra
38/==/CNDChandur (2)X  21:24+2821:25+291m--2-582.238331mCRAmravati Distt, Maharashtra
39/==/BDBadnera Junction (4)X  22:10+1922:15+205m12-553.586335mCRBadnera (Amravati) 444701, Maharashtra
40/==/MZRMurtizapur (3)X  22:44+2422:45+261m--2-511.774303mCRMurtajapur, Maharashtra
41/==/AKAkola Junction (7)  23:15+2723:20+285m12-474.593284mCRAkola-444001, Maharashtra
42/==/SEGShegaon (2)  23:44+3723:45+381m22-437.368281mCRShegaon 444203, Maharashtra
43/==/JMJalamb Junction (3)  23:56+3823:58+392m12-424.967259mCRJalamb, Maharashtra
44/==/NNNandura (2)  00:09+3800:10+431m13-412.770267mCRNandura, Maharashtra
45/==/MKUMalkapur (2)  00:34+4100:35+421m23-384.850252mCRMalkapur, Maharashtra
46/==/BSLBhusaval Junction (8)XO  01:35+2801:45+2910m43-334.941208mCRBhusaval 425201, Maharashtra
47/==/JLJalgaon Junction (4)X  02:20+2102:25+215m23-310.851213mCRJalgaon 425001, Maharashtra
48%==/DXGDharangaon (2)  03:00+3103:01+321m13-281.151217mWRDharangaon, Maharashtra
49/==%ANAmalner (2)  03:30+2703:33+283m13-256.273188mWRAmalner, Maharashtra
50%==%SNKSindkheda (1)  04:07+3504:08+361m13-214.645178mWRState Highway 11, Maharashtra
51%=-/DDEDondaicha (2)X  04:34+3104:35+321m23-195.249163mWRDondaicha, Maharashtra
52/-=%NDBNandurbar (3)  05:17+2605:25+268m13-160.850203mWRNandurbar, Maharashtra
53/==/NWUNavapur (2)  06:35+2406:37+262m--3-102.955124mWRNavapur, Gujarat
54/==%VYAVyara (2)  07:23+2407:25+252m13-61.06090mWRVyara, Gujarat
55%==%MIDMadhi (1)  07:40+2707:42+272m13-46.05945mWRMadhi, Gujarat
56%==%BIYBardoli (2)X  07:57+2807:59+282m--3-31.23735mWRNear Bardoli Sugar Factory Bardoli, Gujarat
57/==%UDNUdhna Junction (3)XO  08:43+1708:45+182m13-4.01416mWRUdhna 394210, Gujarat
58/==/STSurat (4)»X  09:02+1509:12+1510m230.08119mWRSurat 395001, Gujarat
59/==/BHBharuch Junction (5)X  09:56+3009:58+302m3359.37419mWRBharuch, Gujarat
60/==/BRCVadodara Junction (7)X  10:55+3511:00+365m33129.87236mWRVadodara 390005, Gujarat
61/==/ANNDAnand Junction (6)  11:30+1:0211:32+1:042m23165.65344mWRAnand, Gujarat
62/==/NDNadiad Junction (4)X  11:53+5711:55+572m--3184.05837mWRNadiad, Gujarat
63/==/MANManinagar (2)X  12:39+2512:41+242m13226.41050mWRAhmadabad, Gujarat
64/==/ADIAhmedabad Junction (12)•  13:00+16-63229.6-51mWRAhmedabad, Gujarat
Scroll to Top
Scroll to Bottom